sensor_id;sensor_type;location;lat;lon;timestamp;temperature;humidity
20349;DHT22;10332;50.208;18.988;2022-08-25T00:00:12;20.30;99.90
20349;DHT22;10332;50.208;18.988;2022-08-25T00:03:00;20.20;99.90
20349;DHT22;10332;50.208;18.988;2022-08-25T00:05:30;20.20;99.90
20349;DHT22;10332;50.208;18.988;2022-08-25T00:08:00;20.10;99.90
20349;DHT22;10332;50.208;18.988;2022-08-25T00:10:28;20.10;99.90
20349;DHT22;10332;50.208;18.988;2022-08-25T00:12:56;20.00;99.90
20349;DHT22;10332;50.208;18.988;2022-08-25T00:15:23;20.00;99.90
20349;DHT22;10332;50.208;18.988;2022-08-25T00:17:51;20.00;99.90
20349;DHT22;10332;50.208;18.988;2022-08-25T00:20:18;20.00;99.90
20349;DHT22;10332;50.208;18.988;2022-08-25T00:22:46;20.10;99.90
20349;DHT22;10332;50.208;18.988;2022-08-25T00:25:15;20.10;99.90
20349;DHT22;10332;50.208;18.988;2022-08-25T00:27:43;20.10;99.90
20349;DHT22;10332;50.208;18.988;2022-08-25T00:30:12;20.20;99.90
20349;DHT22;10332;50.208;18.988;2022-08-25T00:32:42;20.20;99.90
20349;DHT22;10332;50.208;18.988;2022-08-25T00:35:21;20.20;99.90
20349;DHT22;10332;50.208;18.988;2022-08-25T00:37:49;20.20;99.90
20349;DHT22;10332;50.208;18.988;2022-08-25T00:40:16;20.10;99.90
20349;DHT22;10332;50.208;18.988;2022-08-25T00:42:44;20.10;99.90
20349;DHT22;10332;50.208;18.988;2022-08-25T00:45:12;20.20;99.90
20349;DHT22;10332;50.208;18.988;2022-08-25T00:47:39;20.20;99.90
20349;DHT22;10332;50.208;18.988;2022-08-25T00:50:08;20.30;99.90
20349;DHT22;10332;50.208;18.988;2022-08-25T00:52:42;20.40;99.90
20349;DHT22;10332;50.208;18.988;2022-08-25T00:55:21;20.40;99.90
20349;DHT22;10332;50.208;18.988;2022-08-25T00:58:09;20.50;99.90
20349;DHT22;10332;50.208;18.988;2022-08-25T01:00:45;20.50;99.90
20349;DHT22;10332;50.208;18.988;2022-08-25T01:03:16;20.50;99.90
20349;DHT22;10332;50.208;18.988;2022-08-25T01:05:45;20.60;99.90
20349;DHT22;10332;50.208;18.988;2022-08-25T01:08:14;20.50;99.90
20349;DHT22;10332;50.208;18.988;2022-08-25T01:10:46;20.50;99.90
20349;DHT22;10332;50.208;18.988;2022-08-25T01:13:23;20.50;99.90
20349;DHT22;10332;50.208;18.988;2022-08-25T01:15:55;20.50;99.90
20349;DHT22;10332;50.208;18.988;2022-08-25T01:18:26;20.50;99.90
20349;DHT22;10332;50.208;18.988;2022-08-25T01:20:55;20.50;99.90
20349;DHT22;10332;50.208;18.988;2022-08-25T01:23:25;20.50;99.90
20349;DHT22;10332;50.208;18.988;2022-08-25T01:28:35;20.50;99.90
20349;DHT22;10332;50.208;18.988;2022-08-25T01:31:04;20.50;99.90
20349;DHT22;10332;50.208;18.988;2022-08-25T01:33:50;20.50;99.90
20349;DHT22;10332;50.208;18.988;2022-08-25T01:36:19;20.50;99.90
20349;DHT22;10332;50.208;18.988;2022-08-25T01:38:47;20.40;99.90
20349;DHT22;10332;50.208;18.988;2022-08-25T01:41:20;20.30;99.90
20349;DHT22;10332;50.208;18.988;2022-08-25T01:44:17;20.30;99.90
20349;DHT22;10332;50.208;18.988;2022-08-25T01:46:45;20.30;99.90
20349;DHT22;10332;50.208;18.988;2022-08-25T01:49:12;20.20;99.90
20349;DHT22;10332;50.208;18.988;2022-08-25T01:51:45;20.20;99.90
20349;DHT22;10332;50.208;18.988;2022-08-25T01:54:17;20.20;99.90
20349;DHT22;10332;50.208;18.988;2022-08-25T01:56:44;20.20;99.90
20349;DHT22;10332;50.208;18.988;2022-08-25T01:59:15;20.20;99.90
20349;DHT22;10332;50.208;18.988;2022-08-25T02:01:51;20.10;99.90
20349;DHT22;10332;50.208;18.988;2022-08-25T02:04:27;20.10;99.90
20349;DHT22;10332;50.208;18.988;2022-08-25T02:07:00;20.10;99.90
20349;DHT22;10332;50.208;18.988;2022-08-25T02:09:29;20.10;99.90
20349;DHT22;10332;50.208;18.988;2022-08-25T02:11:56;20.10;99.90
20349;DHT22;10332;50.208;18.988;2022-08-25T02:14:24;20.10;99.90
20349;DHT22;10332;50.208;18.988;2022-08-25T02:16:53;20.10;99.90
20349;DHT22;10332;50.208;18.988;2022-08-25T02:19:22;20.10;99.90
20349;DHT22;10332;50.208;18.988;2022-08-25T02:21:50;20.10;99.90
20349;DHT22;10332;50.208;18.988;2022-08-25T02:24:18;20.10;99.90
20349;DHT22;10332;50.208;18.988;2022-08-25T02:26:47;20.10;99.90
20349;DHT22;10332;50.208;18.988;2022-08-25T02:29:15;20.10;99.90
20349;DHT22;10332;50.208;18.988;2022-08-25T02:31:43;20.10;99.90
20349;DHT22;10332;50.208;18.988;2022-08-25T02:34:11;20.00;99.90
20349;DHT22;10332;50.208;18.988;2022-08-25T02:36:41;20.00;99.90
20349;DHT22;10332;50.208;18.988;2022-08-25T02:39:10;19.90;99.90
20349;DHT22;10332;50.208;18.988;2022-08-25T02:41:39;19.90;99.90
20349;DHT22;10332;50.208;18.988;2022-08-25T02:44:07;20.00;99.90
20349;DHT22;10332;50.208;18.988;2022-08-25T02:46:36;20.00;99.90
20349;DHT22;10332;50.208;18.988;2022-08-25T02:49:05;20.00;99.90
20349;DHT22;10332;50.208;18.988;2022-08-25T02:51:34;20.00;99.90
20349;DHT22;10332;50.208;18.988;2022-08-25T02:54:04;19.90;99.90
20349;DHT22;10332;50.208;18.988;2022-08-25T02:56:32;19.90;99.90
20349;DHT22;10332;50.208;18.988;2022-08-25T02:59:00;19.90;99.90
20349;DHT22;10332;50.208;18.988;2022-08-25T03:01:29;19.90;99.90
20349;DHT22;10332;50.208;18.988;2022-08-25T03:03:59;20.00;99.90
20349;DHT22;10332;50.208;18.988;2022-08-25T03:06:28;20.00;99.90
20349;DHT22;10332;50.208;18.988;2022-08-25T03:08:55;20.00;99.90
20349;DHT22;10332;50.208;18.988;2022-08-25T03:11:23;20.00;99.90
20349;DHT22;10332;50.208;18.988;2022-08-25T03:13:53;19.90;99.90
20349;DHT22;10332;50.208;18.988;2022-08-25T03:16:20;20.00;99.90
20349;DHT22;10332;50.208;18.988;2022-08-25T03:18:53;20.00;99.90
20349;DHT22;10332;50.208;18.988;2022-08-25T03:21:21;20.00;99.90
20349;DHT22;10332;50.208;18.988;2022-08-25T03:23:49;20.00;99.90
20349;DHT22;10332;50.208;18.988;2022-08-25T03:26:17;19.90;99.90
20349;DHT22;10332;50.208;18.988;2022-08-25T03:29:02;20.00;99.90
20349;DHT22;10332;50.208;18.988;2022-08-25T03:31:34;19.90;99.90
20349;DHT22;10332;50.208;18.988;2022-08-25T03:34:03;20.00;99.90
20349;DHT22;10332;50.208;18.988;2022-08-25T03:36:30;20.00;99.90
20349;DHT22;10332;50.208;18.988;2022-08-25T03:38:58;20.00;99.90
20349;DHT22;10332;50.208;18.988;2022-08-25T03:41:29;20.00;99.90
20349;DHT22;10332;50.208;18.988;2022-08-25T03:43:59;20.00;99.90
20349;DHT22;10332;50.208;18.988;2022-08-25T03:46:31;19.90;99.90
20349;DHT22;10332;50.208;18.988;2022-08-25T03:49:03;20.00;99.90
20349;DHT22;10332;50.208;18.988;2022-08-25T03:51:35;20.00;99.90
20349;DHT22;10332;50.208;18.988;2022-08-25T03:54:07;19.90;99.90
20349;DHT22;10332;50.208;18.988;2022-08-25T03:56:36;19.90;99.90
20349;DHT22;10332;50.208;18.988;2022-08-25T03:59:04;19.90;99.90
20349;DHT22;10332;50.208;18.988;2022-08-25T04:01:36;19.90;99.90
20349;DHT22;10332;50.208;18.988;2022-08-25T04:04:06;19.90;99.90
20349;DHT22;10332;50.208;18.988;2022-08-25T04:06:35;19.90;99.90
20349;DHT22;10332;50.208;18.988;2022-08-25T04:09:04;20.00;99.90
20349;DHT22;10332;50.208;18.988;2022-08-25T04:11:32;20.00;99.90
20349;DHT22;10332;50.208;18.988;2022-08-25T04:14:00;20.00;99.90
20349;DHT22;10332;50.208;18.988;2022-08-25T04:16:31;20.10;99.90
20349;DHT22;10332;50.208;18.988;2022-08-25T04:19:03;20.10;99.90
20349;DHT22;10332;50.208;18.988;2022-08-25T04:21:32;20.20;99.90
20349;DHT22;10332;50.208;18.988;2022-08-25T04:23:59;20.30;99.90
20349;DHT22;10332;50.208;18.988;2022-08-25T04:26:29;20.30;99.90
20349;DHT22;10332;50.208;18.988;2022-08-25T04:29:00;20.30;99.90
20349;DHT22;10332;50.208;18.988;2022-08-25T04:31:30;20.30;99.90
20349;DHT22;10332;50.208;18.988;2022-08-25T04:34:01;20.30;99.90
20349;DHT22;10332;50.208;18.988;2022-08-25T04:36:40;20.40;99.90
20349;DHT22;10332;50.208;18.988;2022-08-25T04:39:08;20.40;99.90
20349;DHT22;10332;50.208;18.988;2022-08-25T04:41:37;20.50;99.90
20349;DHT22;10332;50.208;18.988;2022-08-25T04:44:05;20.60;99.90
20349;DHT22;10332;50.208;18.988;2022-08-25T04:46:33;20.60;99.90
20349;DHT22;10332;50.208;18.988;2022-08-25T04:49:01;20.80;99.90
20349;DHT22;10332;50.208;18.988;2022-08-25T04:51:33;20.80;99.90
20349;DHT22;10332;50.208;18.988;2022-08-25T04:54:05;20.90;99.90
20349;DHT22;10332;50.208;18.988;2022-08-25T04:56:36;21.00;99.90
20349;DHT22;10332;50.208;18.988;2022-08-25T04:59:09;21.10;99.90
20349;DHT22;10332;50.208;18.988;2022-08-25T05:01:39;21.20;99.90
20349;DHT22;10332;50.208;18.988;2022-08-25T05:04:10;21.20;99.90
20349;DHT22;10332;50.208;18.988;2022-08-25T05:06:56;21.30;99.90
20349;DHT22;10332;50.208;18.988;2022-08-25T05:09:24;21.30;99.90
20349;DHT22;10332;50.208;18.988;2022-08-25T05:11:52;21.40;99.90
20349;DHT22;10332;50.208;18.988;2022-08-25T05:14:21;21.50;99.90
20349;DHT22;10332;50.208;18.988;2022-08-25T05:16:54;21.50;99.90
20349;DHT22;10332;50.208;18.988;2022-08-25T05:19:22;21.60;99.90
20349;DHT22;10332;50.208;18.988;2022-08-25T05:21:50;21.60;99.90
20349;DHT22;10332;50.208;18.988;2022-08-25T05:24:19;21.70;99.90
20349;DHT22;10332;50.208;18.988;2022-08-25T05:26:48;21.80;99.90
20349;DHT22;10332;50.208;18.988;2022-08-25T05:29:15;21.80;99.90
20349;DHT22;10332;50.208;18.988;2022-08-25T05:31:43;21.90;99.90
20349;DHT22;10332;50.208;18.988;2022-08-25T05:34:17;21.90;99.90
20349;DHT22;10332;50.208;18.988;2022-08-25T05:36:46;22.00;99.90
20349;DHT22;10332;50.208;18.988;2022-08-25T05:39:14;22.00;99.90
20349;DHT22;10332;50.208;18.988;2022-08-25T05:41:42;22.10;99.90
20349;DHT22;10332;50.208;18.988;2022-08-25T05:44:10;22.10;99.90
20349;DHT22;10332;50.208;18.988;2022-08-25T05:46:38;22.20;99.90
20349;DHT22;10332;50.208;18.988;2022-08-25T05:49:06;22.20;99.90
20349;DHT22;10332;50.208;18.988;2022-08-25T05:51:33;22.30;99.90
20349;DHT22;10332;50.208;18.988;2022-08-25T05:54:00;22.40;99.90
20349;DHT22;10332;50.208;18.988;2022-08-25T05:56:28;22.40;99.90
20349;DHT22;10332;50.208;18.988;2022-08-25T05:58:55;22.50;99.90
20349;DHT22;10332;50.208;18.988;2022-08-25T06:01:27;22.60;99.90
20349;DHT22;10332;50.208;18.988;2022-08-25T06:04:15;22.60;99.90
20349;DHT22;10332;50.208;18.988;2022-08-25T06:06:43;22.80;99.90
20349;DHT22;10332;50.208;18.988;2022-08-25T06:09:11;22.80;99.90
20349;DHT22;10332;50.208;18.988;2022-08-25T06:11:39;22.90;99.90
20349;DHT22;10332;50.208;18.988;2022-08-25T06:14:08;23.00;99.90
20349;DHT22;10332;50.208;18.988;2022-08-25T06:16:37;23.00;99.90
20349;DHT22;10332;50.208;18.988;2022-08-25T06:19:07;23.10;99.90
20349;DHT22;10332;50.208;18.988;2022-08-25T06:21:36;23.20;99.90
20349;DHT22;10332;50.208;18.988;2022-08-25T06:24:07;23.30;99.90
20349;DHT22;10332;50.208;18.988;2022-08-25T06:26:41;23.40;99.90
20349;DHT22;10332;50.208;18.988;2022-08-25T06:29:10;23.60;99.90
20349;DHT22;10332;50.208;18.988;2022-08-25T06:31:40;23.70;99.90
20349;DHT22;10332;50.208;18.988;2022-08-25T06:34:09;23.90;99.90
20349;DHT22;10332;50.208;18.988;2022-08-25T06:36:38;24.20;99.90
20349;DHT22;10332;50.208;18.988;2022-08-25T06:39:06;24.80;99.90
20349;DHT22;10332;50.208;18.988;2022-08-25T06:41:36;25.30;99.90
20349;DHT22;10332;50.208;18.988;2022-08-25T06:44:05;25.90;99.80
20349;DHT22;10332;50.208;18.988;2022-08-25T06:46:33;26.50;98.80
20349;DHT22;10332;50.208;18.988;2022-08-25T06:49:04;27.30;97.10
20349;DHT22;10332;50.208;18.988;2022-08-25T06:51:33;28.30;94.30
20349;DHT22;10332;50.208;18.988;2022-08-25T06:54:05;29.10;92.70
20349;DHT22;10332;50.208;18.988;2022-08-25T06:56:34;30.00;89.70
20349;DHT22;10332;50.208;18.988;2022-08-25T06:59:04;30.80;85.30
20349;DHT22;10332;50.208;18.988;2022-08-25T07:01:33;31.60;80.00
20349;DHT22;10332;50.208;18.988;2022-08-25T07:04:03;32.40;75.70
20349;DHT22;10332;50.208;18.988;2022-08-25T07:06:38;33.10;68.50
20349;DHT22;10332;50.208;18.988;2022-08-25T07:09:07;33.90;64.10
20349;DHT22;10332;50.208;18.988;2022-08-25T07:11:38;34.40;60.70
20349;DHT22;10332;50.208;18.988;2022-08-25T07:14:08;33.80;59.30
20349;DHT22;10332;50.208;18.988;2022-08-25T07:16:38;32.70;58.70
20349;DHT22;10332;50.208;18.988;2022-08-25T07:19:13;31.70;60.80
20349;DHT22;10332;50.208;18.988;2022-08-25T07:21:41;30.90;65.30
20349;DHT22;10332;50.208;18.988;2022-08-25T07:24:13;30.40;68.50
20349;DHT22;10332;50.208;18.988;2022-08-25T07:26:42;30.00;71.00
20349;DHT22;10332;50.208;18.988;2022-08-25T07:29:13;29.90;72.20
20349;DHT22;10332;50.208;18.988;2022-08-25T07:31:41;29.70;73.40
20349;DHT22;10332;50.208;18.988;2022-08-25T07:34:09;29.60;74.80
20349;DHT22;10332;50.208;18.988;2022-08-25T07:36:56;29.60;75.60
20349;DHT22;10332;50.208;18.988;2022-08-25T07:39:25;29.60;74.00
20349;DHT22;10332;50.208;18.988;2022-08-25T07:41:55;29.60;74.80
20349;DHT22;10332;50.208;18.988;2022-08-25T07:44:23;29.60;74.40
20349;DHT22;10332;50.208;18.988;2022-08-25T07:46:54;29.80;75.70
20349;DHT22;10332;50.208;18.988;2022-08-25T07:49:24;30.10;75.80
20349;DHT22;10332;50.208;18.988;2022-08-25T07:52:02;30.40;74.50
20349;DHT22;10332;50.208;18.988;2022-08-25T07:54:34;30.80;73.70
20349;DHT22;10332;50.208;18.988;2022-08-25T07:57:06;31.40;71.70
20349;DHT22;10332;50.208;18.988;2022-08-25T07:59:39;32.00;67.90
20349;DHT22;10332;50.208;18.988;2022-08-25T08:02:12;32.90;63.60
20349;DHT22;10332;50.208;18.988;2022-08-25T08:04:52;33.90;58.00
20349;DHT22;10332;50.208;18.988;2022-08-25T08:07:22;35.30;48.30
20349;DHT22;10332;50.208;18.988;2022-08-25T08:10:12;36.70;39.40
20349;DHT22;10332;50.208;18.988;2022-08-25T08:13:02;38.60;22.70
20349;DHT22;10332;50.208;18.988;2022-08-25T08:15:33;40.40;13.90
20349;DHT22;10332;50.208;18.988;2022-08-25T08:18:03;41.80;4.90
20349;DHT22;10332;50.208;18.988;2022-08-25T08:20:33;43.30;1.00
20349;DHT22;10332;50.208;18.988;2022-08-25T08:23:10;44.50;1.00
20349;DHT22;10332;50.208;18.988;2022-08-25T08:25:37;45.90;1.00
20349;DHT22;10332;50.208;18.988;2022-08-25T08:28:05;47.00;1.00
20349;DHT22;10332;50.208;18.988;2022-08-25T08:30:34;48.10;1.00
20349;DHT22;10332;50.208;18.988;2022-08-25T08:33:03;49.20;1.00
20349;DHT22;10332;50.208;18.988;2022-08-25T08:35:39;50.10;1.00
20349;DHT22;10332;50.208;18.988;2022-08-25T08:38:08;51.10;1.00
20349;DHT22;10332;50.208;18.988;2022-08-25T08:53:25;54.40;1.00
20349;DHT22;10332;50.208;18.988;2022-08-25T08:59:27;55.30;1.00
20349;DHT22;10332;50.208;18.988;2022-08-25T09:02:02;55.30;1.00
20349;DHT22;10332;50.208;18.988;2022-08-25T09:04:47;55.50;1.00
20349;DHT22;10332;50.208;18.988;2022-08-25T09:07:34;56.00;1.00
20349;DHT22;10332;50.208;18.988;2022-08-25T09:10:09;56.60;1.00
20349;DHT22;10332;50.208;18.988;2022-08-25T09:12:53;56.80;1.00
20349;DHT22;10332;50.208;18.988;2022-08-25T09:16:16;57.00;1.00
20349;DHT22;10332;50.208;18.988;2022-08-25T09:19:44;57.50;1.00
20349;DHT22;10332;50.208;18.988;2022-08-25T09:25:24;59.60;1.00
20349;DHT22;10332;50.208;18.988;2022-08-25T09:28:27;59.80;1.00
20349;DHT22;10332;50.208;18.988;2022-08-25T09:31:21;59.50;1.00
20349;DHT22;10332;50.208;18.988;2022-08-25T09:33:57;59.90;1.00
20349;DHT22;10332;50.208;18.988;2022-08-25T09:36:28;60.70;1.00
20349;DHT22;10332;50.208;18.988;2022-08-25T09:39:04;61.40;1.00
20349;DHT22;10332;50.208;18.988;2022-08-25T09:41:49;61.90;1.00
20349;DHT22;10332;50.208;18.988;2022-08-25T09:44:26;62.30;1.00
20349;DHT22;10332;50.208;18.988;2022-08-25T09:47:25;62.20;1.00
20349;DHT22;10332;50.208;18.988;2022-08-25T09:49:59;62.50;1.00
20349;DHT22;10332;50.208;18.988;2022-08-25T09:52:37;62.50;1.00
20349;DHT22;10332;50.208;18.988;2022-08-25T10:03:19;63.40;1.00
20349;DHT22;10332;50.208;18.988;2022-08-25T10:08:40;63.20;1.00
20349;DHT22;10332;50.208;18.988;2022-08-25T10:11:42;63.40;1.00
20349;DHT22;10332;50.208;18.988;2022-08-25T10:17:25;63.30;1.00
20349;DHT22;10332;50.208;18.988;2022-08-25T10:20:25;62.70;1.00
20349;DHT22;10332;50.208;18.988;2022-08-25T10:23:13;62.90;1.00
20349;DHT22;10332;50.208;18.988;2022-08-25T10:25:45;63.40;1.00
20349;DHT22;10332;50.208;18.988;2022-08-25T10:31:47;63.50;1.00
20349;DHT22;10332;50.208;18.988;2022-08-25T10:34:47;63.20;1.00
20349;DHT22;10332;50.208;18.988;2022-08-25T10:46:51;62.80;1.00
20349;DHT22;10332;50.208;18.988;2022-08-25T10:49:45;63.60;1.00
20349;DHT22;10332;50.208;18.988;2022-08-25T10:52:38;64.00;1.00
20349;DHT22;10332;50.208;18.988;2022-08-25T11:06:42;63.90;1.00
20349;DHT22;10332;50.208;18.988;2022-08-25T11:09:24;64.40;1.00
20349;DHT22;10332;50.208;18.988;2022-08-25T11:12:11;64.60;1.00
20349;DHT22;10332;50.208;18.988;2022-08-25T11:14:49;64.90;1.00
20349;DHT22;10332;50.208;18.988;2022-08-25T11:17:42;64.90;1.00
20349;DHT22;10332;50.208;18.988;2022-08-25T11:23:42;65.10;1.00
20349;DHT22;10332;50.208;18.988;2022-08-25T11:26:19;65.40;1.00
20349;DHT22;10332;50.208;18.988;2022-08-25T11:29:11;65.50;1.00
20349;DHT22;10332;50.208;18.988;2022-08-25T11:31:47;65.40;1.00
20349;DHT22;10332;50.208;18.988;2022-08-25T11:34:20;65.00;1.00
20349;DHT22;10332;50.208;18.988;2022-08-25T11:36:55;65.10;1.00
20349;DHT22;10332;50.208;18.988;2022-08-25T11:40:03;64.60;1.00
20349;DHT22;10332;50.208;18.988;2022-08-25T11:51:31;64.10;1.00
20349;DHT22;10332;50.208;18.988;2022-08-25T11:54:28;63.80;1.00
20349;DHT22;10332;50.208;18.988;2022-08-25T11:57:08;63.60;1.00
20349;DHT22;10332;50.208;18.988;2022-08-25T12:02:45;62.90;1.00
20349;DHT22;10332;50.208;18.988;2022-08-25T12:08:06;62.30;1.00
20349;DHT22;10332;50.208;18.988;2022-08-25T12:11:02;61.70;1.00
20349;DHT22;10332;50.208;18.988;2022-08-25T12:13:47;60.90;1.00
20349;DHT22;10332;50.208;18.988;2022-08-25T12:17:23;60.50;1.00
20349;DHT22;10332;50.208;18.988;2022-08-25T12:30:23;61.30;1.00
20349;DHT22;10332;50.208;18.988;2022-08-25T12:33:16;60.60;1.00
20349;DHT22;10332;50.208;18.988;2022-08-25T12:36:05;59.30;1.00
20349;DHT22;10332;50.208;18.988;2022-08-25T12:38:46;58.10;1.00
20349;DHT22;10332;50.208;18.988;2022-08-25T12:41:27;56.90;1.00
20349;DHT22;10332;50.208;18.988;2022-08-25T12:44:36;55.00;1.00
20349;DHT22;10332;50.208;18.988;2022-08-25T12:59:00;50.10;1.00
20349;DHT22;10332;50.208;18.988;2022-08-25T13:07:28;47.00;1.00
20349;DHT22;10332;50.208;18.988;2022-08-25T13:10:23;45.50;1.00
20349;DHT22;10332;50.208;18.988;2022-08-25T13:13:22;44.40;1.00
20349;DHT22;10332;50.208;18.988;2022-08-25T13:16:00;43.60;1.00
20349;DHT22;10332;50.208;18.988;2022-08-25T13:18:37;43.30;1.00
20349;DHT22;10332;50.208;18.988;2022-08-25T13:23:36;42.50;1.00
20349;DHT22;10332;50.208;18.988;2022-08-25T13:26:13;42.00;1.00
20349;DHT22;10332;50.208;18.988;2022-08-25T13:31:38;42.90;1.00
20349;DHT22;10332;50.208;18.988;2022-08-25T13:34:24;44.60;1.00
20349;DHT22;10332;50.208;18.988;2022-08-25T13:37:07;46.00;1.00
20349;DHT22;10332;50.208;18.988;2022-08-25T13:42:50;48.40;1.00
20349;DHT22;10332;50.208;18.988;2022-08-25T13:45:26;49.60;1.00
20349;DHT22;10332;50.208;18.988;2022-08-25T13:47:57;50.90;1.00
20349;DHT22;10332;50.208;18.988;2022-08-25T13:55:47;53.70;1.00
20349;DHT22;10332;50.208;18.988;2022-08-25T13:58:25;53.90;1.00
20349;DHT22;10332;50.208;18.988;2022-08-25T14:04:29;54.60;1.00
20349;DHT22;10332;50.208;18.988;2022-08-25T14:10:30;54.10;1.00
20349;DHT22;10332;50.208;18.988;2022-08-25T14:13:14;54.10;1.00
20349;DHT22;10332;50.208;18.988;2022-08-25T14:16:28;53.90;1.00
20349;DHT22;10332;50.208;18.988;2022-08-25T14:19:13;53.80;1.00
20349;DHT22;10332;50.208;18.988;2022-08-25T14:21:46;53.50;1.00
20349;DHT22;10332;50.208;18.988;2022-08-25T14:24:21;52.90;1.00
20349;DHT22;10332;50.208;18.988;2022-08-25T14:26:50;51.60;1.00
20349;DHT22;10332;50.208;18.988;2022-08-25T14:29:20;49.50;1.00
20349;DHT22;10332;50.208;18.988;2022-08-25T14:31:48;47.30;1.00
20349;DHT22;10332;50.208;18.988;2022-08-25T14:34:21;45.50;1.00
20349;DHT22;10332;50.208;18.988;2022-08-25T14:36:55;43.90;1.00
20349;DHT22;10332;50.208;18.988;2022-08-25T14:39:27;42.60;1.00
20349;DHT22;10332;50.208;18.988;2022-08-25T14:41:56;41.50;1.00
20349;DHT22;10332;50.208;18.988;2022-08-25T14:44:24;40.70;1.00
20349;DHT22;10332;50.208;18.988;2022-08-25T14:46:54;40.00;1.00
20349;DHT22;10332;50.208;18.988;2022-08-25T14:49:32;39.40;1.00
20349;DHT22;10332;50.208;18.988;2022-08-25T14:52:09;38.90;1.00
20349;DHT22;10332;50.208;18.988;2022-08-25T14:54:48;38.50;1.00
20349;DHT22;10332;50.208;18.988;2022-08-25T14:57:16;38.10;1.00
20349;DHT22;10332;50.208;18.988;2022-08-25T14:59:44;37.90;1.00
20349;DHT22;10332;50.208;18.988;2022-08-25T15:02:14;37.70;1.00
20349;DHT22;10332;50.208;18.988;2022-08-25T15:04:51;37.30;1.00
20349;DHT22;10332;50.208;18.988;2022-08-25T15:07:22;36.80;1.00
20349;DHT22;10332;50.208;18.988;2022-08-25T15:10:09;36.50;1.00
20349;DHT22;10332;50.208;18.988;2022-08-25T15:12:39;36.10;1.00
20349;DHT22;10332;50.208;18.988;2022-08-25T15:15:14;35.90;1.00
20349;DHT22;10332;50.208;18.988;2022-08-25T15:17:44;35.70;1.00
20349;DHT22;10332;50.208;18.988;2022-08-25T15:20:15;35.50;1.00
20349;DHT22;10332;50.208;18.988;2022-08-25T15:22:42;35.30;1.00
20349;DHT22;10332;50.208;18.988;2022-08-25T15:25:11;35.10;1.00
20349;DHT22;10332;50.208;18.988;2022-08-25T15:27:38;34.90;1.00
20349;DHT22;10332;50.208;18.988;2022-08-25T15:30:07;34.60;1.00
20349;DHT22;10332;50.208;18.988;2022-08-25T15:32:39;34.40;1.00
20349;DHT22;10332;50.208;18.988;2022-08-25T15:35:09;34.40;1.00
20349;DHT22;10332;50.208;18.988;2022-08-25T15:37:41;34.30;1.00
20349;DHT22;10332;50.208;18.988;2022-08-25T15:40:09;34.20;1.00
20349;DHT22;10332;50.208;18.988;2022-08-25T15:42:36;34.20;1.00
20349;DHT22;10332;50.208;18.988;2022-08-25T15:45:09;34.00;1.00
20349;DHT22;10332;50.208;18.988;2022-08-25T15:47:37;33.90;1.00
20349;DHT22;10332;50.208;18.988;2022-08-25T15:50:12;33.80;1.00
20349;DHT22;10332;50.208;18.988;2022-08-25T15:52:42;33.70;1.00
20349;DHT22;10332;50.208;18.988;2022-08-25T15:55:14;33.50;1.00
20349;DHT22;10332;50.208;18.988;2022-08-25T15:57:43;33.40;1.00
20349;DHT22;10332;50.208;18.988;2022-08-25T16:00:11;33.20;1.00
20349;DHT22;10332;50.208;18.988;2022-08-25T16:02:43;33.00;1.00
20349;DHT22;10332;50.208;18.988;2022-08-25T16:05:12;32.90;1.00
20349;DHT22;10332;50.208;18.988;2022-08-25T16:07:42;32.70;1.00
20349;DHT22;10332;50.208;18.988;2022-08-25T16:10:17;32.60;1.00
20349;DHT22;10332;50.208;18.988;2022-08-25T16:12:46;32.60;1.00
20349;DHT22;10332;50.208;18.988;2022-08-25T16:15:14;32.50;1.00
20349;DHT22;10332;50.208;18.988;2022-08-25T16:17:42;32.40;1.00
20349;DHT22;10332;50.208;18.988;2022-08-25T16:20:15;32.30;1.00
20349;DHT22;10332;50.208;18.988;2022-08-25T16:22:43;32.20;1.00
20349;DHT22;10332;50.208;18.988;2022-08-25T16:25:11;32.10;1.00
20349;DHT22;10332;50.208;18.988;2022-08-25T16:27:39;32.00;1.00
20349;DHT22;10332;50.208;18.988;2022-08-25T16:30:10;31.90;1.00
20349;DHT22;10332;50.208;18.988;2022-08-25T16:32:44;31.80;1.00
20349;DHT22;10332;50.208;18.988;2022-08-25T16:35:12;31.70;1.00
20349;DHT22;10332;50.208;18.988;2022-08-25T16:37:40;31.60;1.00
20349;DHT22;10332;50.208;18.988;2022-08-25T16:40:09;31.50;1.00
20349;DHT22;10332;50.208;18.988;2022-08-25T16:42:41;31.30;1.00
20349;DHT22;10332;50.208;18.988;2022-08-25T16:45:08;31.20;1.00
20349;DHT22;10332;50.208;18.988;2022-08-25T16:47:36;31.10;1.00
20349;DHT22;10332;50.208;18.988;2022-08-25T16:50:05;31.00;1.00
20349;DHT22;10332;50.208;18.988;2022-08-25T16:52:37;30.90;1.00
20349;DHT22;10332;50.208;18.988;2022-08-25T16:55:26;30.70;1.00
20349;DHT22;10332;50.208;18.988;2022-08-25T16:58:06;30.60;1.00
20349;DHT22;10332;50.208;18.988;2022-08-25T17:00:39;30.40;1.00
20349;DHT22;10332;50.208;18.988;2022-08-25T17:03:09;30.20;1.00
20349;DHT22;10332;50.208;18.988;2022-08-25T17:05:41;30.10;1.00
20349;DHT22;10332;50.208;18.988;2022-08-25T17:08:09;30.00;1.00
20349;DHT22;10332;50.208;18.988;2022-08-25T17:13:46;29.70;1.00
20349;DHT22;10332;50.208;18.988;2022-08-25T17:16:16;29.50;1.00
20349;DHT22;10332;50.208;18.988;2022-08-25T17:18:46;29.30;1.00
20349;DHT22;10332;50.208;18.988;2022-08-25T17:21:16;29.20;1.00
20349;DHT22;10332;50.208;18.988;2022-08-25T17:23:51;29.00;1.00
20349;DHT22;10332;50.208;18.988;2022-08-25T17:26:21;28.80;1.00
20349;DHT22;10332;50.208;18.988;2022-08-25T17:28:59;28.70;1.00
20349;DHT22;10332;50.208;18.988;2022-08-25T17:31:27;28.50;1.00
20349;DHT22;10332;50.208;18.988;2022-08-25T17:33:57;28.40;1.00
20349;DHT22;10332;50.208;18.988;2022-08-25T17:36:24;28.30;1.00
20349;DHT22;10332;50.208;18.988;2022-08-25T17:38:53;28.10;1.00
20349;DHT22;10332;50.208;18.988;2022-08-25T17:41:23;28.00;1.00
20349;DHT22;10332;50.208;18.988;2022-08-25T17:43:50;27.90;1.30
20349;DHT22;10332;50.208;18.988;2022-08-25T17:46:19;27.80;3.70
20349;DHT22;10332;50.208;18.988;2022-08-25T17:48:47;27.60;5.90
20349;DHT22;10332;50.208;18.988;2022-08-25T17:51:14;27.60;7.40
20349;DHT22;10332;50.208;18.988;2022-08-25T17:53:42;27.50;8.80
20349;DHT22;10332;50.208;18.988;2022-08-25T17:56:15;27.40;10.70
20349;DHT22;10332;50.208;18.988;2022-08-25T17:58:45;27.40;11.60
20349;DHT22;10332;50.208;18.988;2022-08-25T18:01:22;27.30;12.70
20349;DHT22;10332;50.208;18.988;2022-08-25T18:03:54;27.30;13.70
20349;DHT22;10332;50.208;18.988;2022-08-25T18:06:24;27.30;14.90
20349;DHT22;10332;50.208;18.988;2022-08-25T18:08:52;27.30;16.90
20349;DHT22;10332;50.208;18.988;2022-08-25T18:11:26;27.30;19.60